Time;durP1;ratioP1;P1;durP2;ratioP2;P2;SDS_P1;SDS_P2;PMS_P1;PMS_P2;Temp;Humidity;BMP_temperature;BMP_pressure;BME280_temperature;BME280_humidity;BME280_pressure;Samples;Min_cycle;Max_cycle;Signal;HPM_P1;HPM_P2
2023/03/13 00:00:06;;;;;;;26.10;12.20;;;;;;;0.25;79.03;98856.44;434817;1254;143290;-70
2023/03/13 00:10:13;;;;;;;19.40;11.20;;;;;;;0.10;79.77;98852.30;434571;1257;142570;-69
2023/03/13 00:20:18;;;;;;;9.90;8.10;;;;;;;-0.07;80.57;98831.13;434264;1257;142446;-69
2023/03/13 00:30:24;;;;;;;12.10;7.30;;;;;;;-0.19;81.50;98822.21;436166;1254;143772;-70
2023/03/13 00:40:30;;;;;;;10.90;7.10;;;;;;;-0.21;82.23;98819.89;434212;1257;142179;-69
2023/03/13 00:50:36;;;;;;;8.50;6.30;;;;;;;-0.16;83.30;98818.50;436072;1255;142769;-69
2023/03/13 01:00:42;;;;;;;8.80;5.70;;;;;;;-0.12;84.01;98799.46;436200;1253;143335;-69
2023/03/13 01:10:47;;;;;;;10.40;7.60;;;;;;;-0.10;84.94;98787.00;436130;1253;359119;-68
2023/03/13 01:20:54;;;;;;;8.70;6.30;;;;;;;-0.06;85.71;98783.63;435700;1254;140611;-68
2023/03/13 01:31:00;;;;;;;11.40;6.60;;;;;;;-0.05;86.69;98777.75;434148;1256;143026;-68
2023/03/13 01:41:07;;;;;;;10.20;6.70;;;;;;;-0.05;87.68;98773.60;434063;1253;142673;-69
2023/03/13 01:51:18;;;;;;;11.40;6.50;;;;;;;-0.04;88.80;98759.13;435729;1254;141904;-69
2023/03/13 02:01:25;;;;;;;7.10;6.20;;;;;;;-0.03;90.13;98749.27;436596;1255;142612;-68
2023/03/13 02:11:39;;;;;;;9.00;6.80;;;;;;;0.01;91.30;98745.34;435034;1252;142555;-67
2023/03/13 02:21:55;;;;;;;11.30;8.70;;;;;;;0.10;92.69;98748.14;435328;1256;142429;-70
2023/03/13 02:32:01;;;;;;;11.30;7.40;;;;;;;0.20;93.85;98746.94;435814;1252;163490;-70
2023/03/13 02:42:07;;;;;;;8.40;7.20;;;;;;;0.29;94.71;98752.65;436201;1252;142679;-69
2023/03/13 02:52:17;;;;;;;9.20;7.30;;;;;;;0.38;95.49;98758.88;436231;1252;141011;-70
2023/03/13 03:02:23;;;;;;;14.00;9.50;;;;;;;0.48;96.09;98761.10;436505;1256;202548;-69
2023/03/13 03:12:29;;;;;;;12.00;7.60;;;;;;;0.61;96.52;98768.58;435722;1254;141837;-69
2023/03/13 03:22:37;;;;;;;12.90;6.90;;;;;;;0.73;96.87;98762.80;435948;1253;140493;-69
2023/03/13 03:32:43;;;;;;;13.30;7.70;;;;;;;0.86;97.35;98762.99;436039;1254;142130;-69
2023/03/13 03:42:49;;;;;;;10.60;7.30;;;;;;;1.03;97.89;98749.97;435696;1254;143776;-71
2023/03/13 03:52:55;;;;;;;11.30;8.90;;;;;;;1.18;98.26;98754.06;436052;1254;141048;-69
2023/03/13 04:03:01;;;;;;;9.80;8.30;;;;;;;1.32;98.66;98742.63;435242;1254;141807;-69
2023/03/13 04:13:07;;;;;;;10.70;8.70;;;;;;;1.45;98.68;98731.11;435974;1255;143652;-69
2023/03/13 04:23:12;;;;;;;9.10;7.40;;;;;;;1.56;98.78;98733.05;435559;1254;141624;-68
2023/03/13 04:33:18;;;;;;;10.50;7.10;;;;;;;1.70;99.39;98731.13;434249;1258;141321;-68
2023/03/13 04:43:24;;;;;;;9.20;7.80;;;;;;;1.87;99.48;98729.05;435094;1254;141477;-68
2023/03/13 04:53:29;;;;;;;8.10;7.00;;;;;;;1.97;99.81;98722.41;435319;1254;141426;-70
2023/03/13 05:03:35;;;;;;;11.20;7.60;;;;;;;2.02;100.00;98721.33;436549;1254;140986;-69
2023/03/13 05:13:41;;;;;;;10.10;8.00;;;;;;;2.08;100.00;98714.16;435403;1254;141534;-70
2023/03/13 05:23:47;;;;;;;14.30;9.90;;;;;;;2.18;100.00;98699.73;435243;1254;142715;-68
2023/03/13 05:33:53;;;;;;;11.30;10.10;;;;;;;2.34;100.00;98694.41;435636;1255;141906;-69
2023/03/13 05:43:58;;;;;;;13.20;9.70;;;;;;;2.51;100.00;98681.52;435222;1253;143102;-70
2023/03/13 05:54:04;;;;;;;8.90;7.20;;;;;;;2.71;100.00;98675.45;438150;1252;142325;-69
2023/03/13 06:04:10;;;;;;;10.10;7.80;;;;;;;2.86;100.00;98676.13;442576;1252;141890;-68
2023/03/13 06:14:16;;;;;;;10.60;6.70;;;;;;;3.12;100.00;98671.31;437435;1254;141129;-68
2023/03/13 06:24:22;;;;;;;8.80;7.40;;;;;;;3.50;100.00;98662.21;436402;1254;141930;-69
2023/03/13 06:34:27;;;;;;;13.90;8.60;;;;;;;3.97;100.00;98658.42;434215;1256;142646;-68
2023/03/13 06:44:33;;;;;;;9.20;8.00;;;;;;;4.42;100.00;98652.45;432777;1253;143748;-67
2023/03/13 06:54:39;;;;;;;10.40;6.10;;;;;;;4.98;100.00;98645.44;433116;1256;141763;-68
2023/03/13 07:04:45;;;;;;;10.50;6.70;;;;;;;5.53;99.87;98645.65;434471;1254;142810;-69
2023/03/13 07:14:51;;;;;;;9.10;7.10;;;;;;;5.82;98.85;98644.48;432792;1256;142497;-67
2023/03/13 07:24:57;;;;;;;10.10;6.10;;;;;;;5.73;98.67;98650.55;435363;1254;141658;-69
2023/03/13 07:35:03;;;;;;;8.30;6.80;;;;;;;5.81;98.72;98645.38;432760;1255;142273;-69
2023/03/13 07:45:10;;;;;;;10.00;5.50;;;;;;;6.05;98.78;98630.11;434191;1254;142647;-68
2023/03/13 07:55:16;;;;;;;9.90;6.00;;;;;;;7.29;98.01;98610.30;434286;1256;142350;-67
2023/03/13 08:05:22;;;;;;;10.10;7.50;;;;;;;7.77;96.95;98594.92;433063;1253;142530;-69
2023/03/13 08:15:28;;;;;;;7.20;5.90;;;;;;;9.22;94.76;98577.81;434195;1254;142094;-69
2023/03/13 08:25:34;;;;;;;7.60;5.40;;;;;;;10.43;92.01;98572.21;438019;1254;142320;-67
2023/03/13 08:35:40;;;;;;;7.60;4.40;;;;;;;12.54;88.83;98558.36;441097;1253;142848;-69
2023/03/13 08:45:46;;;;;;;8.30;5.30;;;;;;;12.86;84.22;98535.91;441185;1252;141862;-69
2023/03/13 08:55:55;;;;;;;8.90;4.70;;;;;;;12.80;82.28;98536.61;438531;1252;140998;-68
2023/03/13 09:06:02;;;;;;;10.10;5.30;;;;;;;12.12;81.57;98526.79;434762;1254;142338;-68
2023/03/13 09:16:10;;;;;;;8.90;5.10;;;;;;;11.78;81.71;98520.70;445391;1254;142373;-67
2023/03/13 09:26:16;;;;;;;8.90;6.00;;;;;;;11.46;81.11;98498.39;443113;1255;145991;-69
2023/03/13 09:36:23;;;;;;;9.60;4.70;;;;;;;11.47;80.73;98495.11;436142;1253;141970;-69
2023/03/13 09:46:36;;;;;;;6.10;3.70;;;;;;;11.80;80.26;98506.54;436044;1253;142405;-69
2023/03/13 09:56:45;;;;;;;9.60;4.40;;;;;;;11.89;78.68;98489.12;435233;1255;143657;-69
2023/03/13 10:06:51;;;;;;;11.70;5.10;;;;;;;11.90;77.60;98464.45;437678;1254;145429;-69
2023/03/13 10:17:06;;;;;;;6.00;3.80;;;;;;;12.03;77.04;98445.11;437290;1255;144348;-70
2023/03/13 10:27:14;;;;;;;10.90;4.40;;;;;;;12.30;76.14;98431.52;435126;1256;205976;-68
2023/03/13 10:37:23;;;;;;;7.00;3.30;;;;;;;12.03;74.62;98407.40;432973;1257;141441;-68
2023/03/13 10:47:32;;;;;;;7.30;3.60;;;;;;;11.71;74.78;98391.63;435572;1253;140723;-68
2023/03/13 10:57:43;;;;;;;6.80;3.30;;;;;;;11.60;74.16;98372.73;434833;1254;144078;-68
2023/03/13 11:07:49;;;;;;;8.00;3.60;;;;;;;11.58;73.77;98347.98;434652;1256;142369;-70
2023/03/13 11:18:02;;;;;;;7.00;3.80;;;;;;;11.47;73.67;98327.30;434664;1253;146007;-68
2023/03/13 11:28:21;;;;;;;11.50;4.00;;;;;;;11.28;74.16;98307.23;437508;1256;145302;-69
2023/03/13 11:38:32;;;;;;;6.40;2.60;;;;;;;11.00;74.54;98311.19;432610;1256;146295;-67
2023/03/13 11:48:50;;;;;;;11.50;4.90;;;;;;;10.71;75.69;98311.88;434397;1254;145885;-68
2023/03/13 11:59:16;;;;;;;7.10;4.50;;;;;;;10.45;77.41;98299.91;433478;1254;141198;-68
2023/03/13 12:09:30;;;;;;;9.80;4.90;;;;;;;10.21;78.86;98270.29;432943;1256;206586;-67
2023/03/13 12:19:42;;;;;;;7.60;4.00;;;;;;;10.35;79.94;98273.20;436064;1254;141779;-68
2023/03/13 12:29:53;;;;;;;11.30;4.30;;;;;;;10.35;80.88;98266.39;434748;1256;147216;-68
2023/03/13 12:40:06;;;;;;;7.50;3.80;;;;;;;10.18;82.55;98250.82;436839;1254;142307;-68
2023/03/13 12:50:23;;;;;;;10.00;5.60;;;;;;;9.87;83.96;98231.48;439354;1254;141292;-69
2023/03/13 13:00:33;;;;;;;10.50;4.60;;;;;;;9.69;85.62;98204.34;449330;1252;143430;-69
2023/03/13 13:10:40;;;;;;;10.20;5.00;;;;;;;9.63;86.17;98186.52;433804;1257;191432;-67
2023/03/13 13:21:10;;;;;;;9.20;5.70;;;;;;;9.64;86.26;98181.12;433986;1257;142600;-69
2023/03/13 13:31:55;;;;;;;9.10;5.10;;;;;;;9.57;86.57;98177.52;438791;1255;142190;-68
2023/03/13 13:42:21;;;;;;;10.80;3.90;;;;;;;9.54;86.63;98178.13;443531;1253;142857;-69
2023/03/13 13:52:38;;;;;;;8.50;4.00;;;;;;;9.37;86.70;98176.20;437090;1256;140840;-67
2023/03/13 14:02:51;;;;;;;6.70;3.20;;;;;;;9.29;87.08;98174.77;443694;1257;147058;-68
2023/03/13 14:12:59;;;;;;;8.70;3.00;;;;;;;9.30;87.16;98168.20;446971;1254;196856;-68
2023/03/13 14:23:07;;;;;;;6.40;2.60;;;;;;;9.33;87.01;98160.95;445539;1256;142501;-68
2023/03/13 14:33:13;;;;;;;7.20;3.60;;;;;;;9.33;86.94;98147.54;449689;1252;142303;-69
2023/03/13 14:43:31;;;;;;;6.90;4.50;;;;;;;9.33;87.29;98128.67;438229;1256;141753;-67
2023/03/13 14:53:37;;;;;;;10.80;4.60;;;;;;;9.34;87.46;98122.09;440624;1254;143166;-68
2023/03/13 15:03:46;;;;;;;5.50;3.00;;;;;;;9.28;87.64;98127.30;435095;1257;143403;-68
2023/03/13 15:13:52;;;;;;;7.10;3.80;;;;;;;9.26;87.47;98106.71;441607;1255;142420;-68
2023/03/13 15:24:01;;;;;;;8.00;4.90;;;;;;;9.28;87.70;98096.74;439211;1256;141516;-69
2023/03/13 15:34:12;;;;;;;13.60;4.70;;;;;;;9.29;87.94;98091.83;438260;1257;141102;-69
2023/03/13 15:44:18;;;;;;;7.50;4.30;;;;;;;9.27;88.05;98105.96;435225;1256;142277;-69
2023/03/13 15:54:25;;;;;;;7.90;4.90;;;;;;;9.18;88.42;98097.95;433720;1258;142823;-68
2023/03/13 16:04:31;;;;;;;12.30;5.80;;;;;;;9.11;88.83;98093.77;435982;1258;143248;-68
2023/03/13 16:14:39;;;;;;;6.00;3.40;;;;;;;9.05;88.88;98094.65;434822;1258;145593;-68
2023/03/13 16:24:44;;;;;;;8.60;4.70;;;;;;;9.00;88.81;98096.93;439356;1253;141512;-68
2023/03/13 16:34:50;;;;;;;9.20;4.80;;;;;;;9.00;88.53;98109.73;448050;1257;142883;-68
2023/03/13 16:44:56;;;;;;;6.70;4.00;;;;;;;9.04;88.29;98117.05;435052;1257;146375;-69
2023/03/13 16:55:01;;;;;;;9.70;5.10;;;;;;;9.02;88.08;98114.75;434708;1258;144024;-68
2023/03/13 17:05:08;;;;;;;10.40;5.00;;;;;;;9.07;87.62;98103.40;433645;1256;142705;-68
2023/03/13 17:15:14;;;;;;;9.20;5.80;;;;;;;9.09;86.98;98086.77;435573;1257;142248;-69
2023/03/13 17:25:20;;;;;;;20.20;11.10;;;;;;;9.07;86.32;98069.49;435642;1254;142093;-68
2023/03/13 17:35:26;;;;;;;18.30;10.50;;;;;;;9.08;85.45;98072.41;435876;1257;144489;-69
2023/03/13 17:45:35;;;;;;;13.60;7.40;;;;;;;9.06;85.00;98080.52;435995;1254;141798;-69
2023/03/13 17:55:41;;;;;;;10.00;5.80;;;;;;;9.06;84.44;98081.42;435202;1257;142747;-68
2023/03/13 18:05:47;;;;;;;12.50;6.90;;;;;;;9.08;83.93;98081.66;433759;1255;147598;-69
2023/03/13 18:15:53;;;;;;;14.40;7.20;;;;;;;9.09;83.39;98074.23;435343;1257;141276;-67
2023/03/13 18:26:01;;;;;;;10.80;7.60;;;;;;;9.09;83.12;98058.35;433755;1254;142093;-68
2023/03/13 18:36:17;;;;;;;15.70;8.10;;;;;;;9.06;82.71;98046.86;431645;1257;144032;-69
2023/03/13 18:46:26;;;;;;;8.80;6.00;;;;;;;9.04;82.35;98055.91;435061;1257;141715;-67
2023/03/13 18:56:33;;;;;;;11.60;7.20;;;;;;;9.01;82.19;98067.73;437044;1254;141931;-69
2023/03/13 19:06:39;;;;;;;11.70;6.70;;;;;;;8.94;82.04;98056.27;433441;1254;144420;-68
2023/03/13 19:16:48;;;;;;;11.40;7.40;;;;;;;8.86;82.08;98044.81;433662;1256;145164;-68
2023/03/13 19:26:58;;;;;;;7.00;5.30;;;;;;;8.79;82.13;98043.83;434914;1255;142091;-69
2023/03/13 19:37:03;;;;;;;12.20;7.20;;;;;;;8.78;82.09;98042.71;434591;1257;142719;-68
2023/03/13 19:47:15;;;;;;;10.50;6.20;;;;;;;8.78;81.95;98034.31;433727;1254;142557;-67
2023/03/13 19:57:21;;;;;;;10.10;5.50;;;;;;;8.79;81.92;98020.30;432908;1257;142756;-69
2023/03/13 20:07:27;;;;;;;10.40;5.70;;;;;;;8.81;81.60;98018.86;435129;1255;141894;-69
2023/03/13 20:17:33;;;;;;;11.60;6.30;;;;;;;8.83;81.39;98022.20;433558;1254;147160;-67
2023/03/13 20:27:39;;;;;;;8.80;5.60;;;;;;;8.87;81.15;98015.59;433037;1253;143273;-67
2023/03/13 20:37:45;;;;;;;5.70;4.00;;;;;;;8.93;80.59;97994.58;433551;1256;145431;-67
2023/03/13 20:47:51;;;;;;;7.20;4.30;;;;;;;9.00;80.16;97985.95;433861;1257;142250;-69
2023/03/13 20:58:00;;;;;;;7.70;4.70;;;;;;;8.94;79.47;97979.77;434949;1257;138717;-69
2023/03/13 21:08:06;;;;;;;7.90;5.20;;;;;;;8.90;79.28;97982.20;434997;1258;139834;-69
2023/03/13 21:18:12;;;;;;;6.30;4.20;;;;;;;8.73;78.73;97958.63;438147;1256;139782;-68
2023/03/13 21:28:18;;;;;;;6.70;4.20;;;;;;;8.55;78.62;97946.67;435317;1257;138846;-68
2023/03/13 21:38:23;;;;;;;6.30;4.00;;;;;;;8.50;78.78;97934.89;435063;1258;139790;-69
2023/03/13 21:48:29;;;;;;;6.70;3.90;;;;;;;8.43;78.49;97932.84;434924;1257;138747;-68
2023/03/13 21:58:35;;;;;;;8.30;4.80;;;;;;;8.21;78.49;97930.40;434866;1260;139709;-68
2023/03/13 22:08:41;;;;;;;5.50;4.00;;;;;;;8.17;78.52;97925.64;437675;1256;142239;-69
2023/03/13 22:18:47;;;;;;;8.10;4.90;;;;;;;8.21;78.52;97914.14;435694;1256;138882;-68
2023/03/13 22:28:53;;;;;;;9.90;6.00;;;;;;;8.17;78.44;97904.77;436303;1257;139621;-67
2023/03/13 22:38:59;;;;;;;8.70;4.20;;;;;;;8.19;78.38;97890.11;434690;1260;139121;-68
2023/03/13 22:49:04;;;;;;;5.30;3.80;;;;;;;8.26;78.19;97878.88;448264;1255;140495;-67
2023/03/13 22:59:10;;;;;;;6.10;4.40;;;;;;;8.43;77.62;97873.86;435260;1260;141030;-68
2023/03/13 23:09:16;;;;;;;4.40;3.10;;;;;;;8.48;77.20;97865.03;435473;1258;138906;-68
2023/03/13 23:19:22;;;;;;;6.60;3.60;;;;;;;8.51;76.59;97851.08;436022;1257;141201;-68
2023/03/13 23:29:27;;;;;;;5.40;4.00;;;;;;;8.45;76.58;97845.83;435277;1260;139177;-69
2023/03/13 23:39:33;;;;;;;4.70;2.80;;;;;;;8.49;76.23;97830.49;435291;1256;141266;-69
2023/03/13 23:49:39;;;;;;;5.90;3.20;;;;;;;8.47;76.19;97798.00;436220;1256;138629;-69
2023/03/13 23:59:45;;;;;;;4.80;3.80;;;;;;;8.43;75.88;97797.48;435126;1260;139185;-68
